Time;durP1;ratioP1;P1;durP2;ratioP2;P2;SDS_P1;SDS_P2;PMS_P1;PMS_P2;Temp;Humidity;BMP_temperature;BMP_pressure;BME280_temperature;BME280_humidity;BME280_pressure;Samples;Min_cycle;Max_cycle;Signal;HPM_P1;HPM_P2
2020/12/29 00:00:32;;;;;;;140.90;42.67;;;1.40;98.40;;;;;;5074228;28;20043;-78
2020/12/29 00:02:58;;;;;;;142.60;43.92;;;1.40;98.50;;;;;;5074090;28;20051;-74
2020/12/29 00:05:24;;;;;;;129.10;38.45;;;1.40;98.50;;;;;;5074115;28;20017;-75
2020/12/29 00:07:55;;;;;;;132.18;39.97;;;1.40;98.60;;;;;;5055854;28;20497;-74
2020/12/29 00:10:22;;;;;;;157.30;44.63;;;1.40;98.60;;;;;;5074460;28;20090;-74
2020/12/29 00:12:48;;;;;;;143.98;40.13;;;1.40;98.70;;;;;;5083066;28;20466;-74
2020/12/29 00:15:14;;;;;;;146.45;41.42;;;1.40;98.70;;;;;;5077235;28;20037;-74
2020/12/29 00:17:40;;;;;;;128.70;39.45;;;1.40;98.80;;;;;;5056091;28;20020;-74
2020/12/29 00:20:06;;;;;;;160.82;44.22;;;1.40;98.80;;;;;;5073872;28;20031;-75
2020/12/29 00:22:32;;;;;;;144.48;39.40;;;1.40;98.80;;;;;;5074337;28;20040;-75
2020/12/29 00:24:58;;;;;;;153.32;41.10;;;1.30;98.70;;;;;;5074377;28;20375;-75
2020/12/29 00:27:24;;;;;;;171.90;43.92;;;1.30;98.80;;;;;;5074455;28;20043;-74
2020/12/29 00:29:49;;;;;;;136.88;38.60;;;1.30;99.00;;;;;;5074144;28;20348;-75
2020/12/29 00:32:15;;;;;;;130.98;37.58;;;1.20;98.80;;;;;;5074422;28;20033;-75
2020/12/29 00:34:41;;;;;;;119.75;34.58;;;1.20;98.80;;;;;;5074227;28;20416;-76
2020/12/29 00:37:07;;;;;;;96.68;32.75;;;1.20;98.90;;;;;;5074087;28;20055;-76
2020/12/29 00:39:33;;;;;;;130.48;38.75;;;1.10;98.90;;;;;;5073801;28;20068;-75
2020/12/29 00:41:59;;;;;;;123.47;36.58;;;1.10;99.00;;;;;;5074359;28;20021;-76
2020/12/29 00:44:25;;;;;;;133.63;43.45;;;1.10;99.00;;;;;;5074317;28;20100;-76
2020/12/29 00:46:51;;;;;;;151.15;47.05;;;1.10;99.10;;;;;;5074137;28;20078;-75
2020/12/29 00:49:17;;;;;;;162.90;48.67;;;1.10;99.10;;;;;;5056226;28;20043;-74
2020/12/29 00:51:43;;;;;;;160.15;48.45;;;1.10;99.20;;;;;;5055643;28;20530;-74
2020/12/29 00:54:08;;;;;;;94.18;32.20;;;1.10;99.10;;;;;;5073693;28;20029;-74
2020/12/29 00:56:34;;;;;;;136.93;44.05;;;1.10;99.20;;;;;;5073863;28;20031;-75
2020/12/29 00:59:00;;;;;;;163.30;47.30;;;1.10;99.20;;;;;;5073630;28;20016;-74
2020/12/29 01:01:25;;;;;;;143.52;42.10;;;1.10;99.30;;;;;;5073566;28;20144;-75
2020/12/29 01:03:51;;;;;;;161.05;43.83;;;1.00;99.30;;;;;;5073653;28;20023;-74
2020/12/29 01:06:25;;;;;;;138.82;36.40;;;1.00;99.40;;;;;;5073492;28;20021;-75
2020/12/29 01:08:50;;;;;;;146.82;37.10;;;1.00;99.40;;;;;;5073057;28;20016;-74
2020/12/29 01:11:18;;;;;;;151.55;39.33;;;1.00;99.40;;;;;;5073345;28;20028;-75
2020/12/29 01:13:45;;;;;;;110.82;30.73;;;1.00;99.40;;;;;;5073315;28;20020;-75
2020/12/29 01:16:10;;;;;;;121.63;30.90;;;1.00;99.50;;;;;;5073510;28;20467;-75
2020/12/29 01:18:37;;;;;;;131.43;33.65;;;1.00;99.40;;;;;;5055532;28;20040;-76
2020/12/29 01:21:04;;;;;;;129.23;36.47;;;0.90;99.60;;;;;;5073450;28;20028;-76
2020/12/29 01:23:29;;;;;;;140.95;35.53;;;0.90;99.60;;;;;;5073257;28;20033;-75
2020/12/29 01:25:55;;;;;;;151.02;37.55;;;0.90;99.60;;;;;;5073326;28;20021;-76
2020/12/29 01:28:21;;;;;;;156.75;39.60;;;0.90;99.70;;;;;;5073233;28;20462;-76
2020/12/29 01:30:46;;;;;;;158.35;40.17;;;0.90;99.80;;;;;;5073107;28;20086;-75
2020/12/29 01:33:12;;;;;;;164.98;41.78;;;0.90;99.80;;;;;;5073471;28;20024;-75
2020/12/29 01:35:38;;;;;;;184.02;45.10;;;0.90;99.80;;;;;;5073254;28;20807;-75
2020/12/29 01:38:03;;;;;;;210.25;47.13;;;0.90;99.80;;;;;;5072255;28;20036;-75
2020/12/29 01:40:29;;;;;;;216.57;51.30;;;0.90;99.80;;;;;;5072387;28;20078;-75
2020/12/29 01:42:55;;;;;;;224.60;56.38;;;0.90;99.90;;;;;;5072292;28;20024;-75
2020/12/29 01:45:23;;;;;;;257.25;59.05;;;0.90;99.90;;;;;;5072270;28;20017;-75
2020/12/29 01:47:48;;;;;;;218.25;55.08;;;0.90;99.90;;;;;;5054396;28;20025;-75
2020/12/29 01:50:23;;;;;;;243.43;58.70;;;0.90;99.90;;;;;;5072063;28;20017;-75
2020/12/29 01:52:58;;;;;;;234.35;58.78;;;0.90;99.90;;;;;;5072026;28;20029;-75
2020/12/29 01:55:25;;;;;;;201.80;51.78;;;0.90;99.90;;;;;;5072308;28;20025;-75
2020/12/29 01:57:52;;;;;;;201.20;51.47;;;0.90;99.90;;;;;;5072088;28;20024;-76
2020/12/29 02:00:18;;;;;;;258.83;62.03;;;0.90;99.90;;;;;;5072262;28;20446;-76
2020/12/29 02:02:45;;;;;;;196.73;46.53;;;0.90;99.90;;;;;;5072110;28;20048;-76
2020/12/29 02:05:10;;;;;;;267.90;61.15;;;0.90;99.90;;;;;;5072321;28;20027;-76
2020/12/29 02:07:36;;;;;;;215.43;50.30;;;0.90;99.90;;;;;;5072257;28;20020;-76
2020/12/29 02:10:03;;;;;;;216.70;52.95;;;0.90;99.90;;;;;;5072384;28;20048;-76
2020/12/29 02:12:36;;;;;;;216.32;50.47;;;0.90;99.90;;;;;;5054332;28;20509;-75
2020/12/29 02:15:08;;;;;;;227.07;49.75;;;0.90;99.90;;;;;;5072191;28;20103;-75
2020/12/29 02:17:34;;;;;;;;;;;1.00;99.90;;;;;;5072424;28;20025;-76
2020/12/29 02:20:00;;;;;;;200.90;42.10;;;0.90;99.90;;;;;;5072435;28;19908;-77
2020/12/29 02:22:27;;;;;;;240.30;50.75;;;1.00;99.90;;;;;;5075131;28;20117;-76
2020/12/29 02:25:02;;;;;;;213.10;45.90;;;1.00;99.90;;;;;;5076410;28;20498;-76
2020/12/29 02:27:30;;;;;;;181.77;44.58;;;1.00;99.90;;;;;;5076704;28;20021;-76
2020/12/29 02:29:56;;;;;;;214.13;46.65;;;1.00;99.90;;;;;;5076698;28;20028;-77
2020/12/29 02:32:22;;;;;;;198.18;43.92;;;1.00;99.90;;;;;;5076653;28;20142;-77
2020/12/29 02:34:48;;;;;;;217.38;46.15;;;1.00;99.90;;;;;;5076573;28;20412;-77
2020/12/29 02:37:15;;;;;;;178.43;43.25;;;1.00;99.90;;;;;;5076328;28;20106;-77
2020/12/29 02:39:49;;;;;;;213.98;47.88;;;1.00;99.90;;;;;;5076539;28;20028;-78
2020/12/29 02:42:15;;;;;;;201.18;50.08;;;1.00;99.90;;;;;;5076376;28;20105;-76
2020/12/29 02:44:41;;;;;;;210.20;50.50;;;1.10;99.90;;;;;;5076443;28;20075;-76
2020/12/29 02:47:06;;;;;;;183.73;44.28;;;1.10;99.90;;;;;;5076897;28;20413;-77
2020/12/29 02:49:33;;;;;;;198.93;45.58;;;1.00;99.90;;;;;;5076869;28;20025;-76
2020/12/29 02:52:03;;;;;;;224.80;48.47;;;1.10;99.90;;;;;;5076683;28;20024;-77
2020/12/29 02:54:28;;;;;;;207.07;47.70;;;1.00;99.90;;;;;;5058149;28;20378;-78
2020/12/29 02:56:55;;;;;;;215.75;48.97;;;1.00;99.90;;;;;;5076307;28;20108;-76
2020/12/29 02:59:27;;;;;;;206.60;46.35;;;1.00;99.90;;;;;;5076397;28;20037;-77
2020/12/29 03:01:53;;;;;;;206.30;49.97;;;1.10;99.90;;;;;;5058517;28;20517;-77
2020/12/29 03:04:19;;;;;;;215.23;47.88;;;1.10;99.90;;;;;;5076110;28;20059;-77
2020/12/29 03:06:46;;;;;;;187.43;44.20;;;1.10;99.90;;;;;;5076064;28;20024;-77
2020/12/29 03:09:12;;;;;;;253.05;51.42;;;1.10;99.90;;;;;;5076237;28;20016;-77
2020/12/29 03:11:38;;;;;;;196.73;46.25;;;1.10;99.90;;;;;;5075897;28;20032;-76
2020/12/29 03:14:06;;;;;;;211.23;49.35;;;1.10;99.90;;;;;;5057687;28;20024;-77
2020/12/29 03:16:32;;;;;;;244.70;49.75;;;1.10;99.90;;;;;;5075595;28;20017;-77
2020/12/29 03:18:58;;;;;;;303.05;64.13;;;1.10;99.90;;;;;;5075377;28;20024;-77
2020/12/29 03:21:24;;;;;;;264.75;58.65;;;1.10;99.90;;;;;;5075242;28;20064;-76
2020/12/29 03:23:50;;;;;;;286.83;63.15;;;1.10;99.90;;;;;;5057031;28;20063;-75
2020/12/29 03:26:17;;;;;;;232.57;51.25;;;1.10;99.90;;;;;;5074646;28;20095;-74
2020/12/29 03:28:43;;;;;;;275.92;59.33;;;1.10;99.90;;;;;;5074534;28;20052;-74
2020/12/29 03:31:08;;;;;;;277.10;59.88;;;1.10;99.90;;;;;;5074772;28;20082;-74
2020/12/29 03:33:34;;;;;;;255.65;52.90;;;1.10;99.90;;;;;;5074119;28;20036;-74
2020/12/29 03:36:00;;;;;;;322.63;64.10;;;1.10;99.90;;;;;;5074542;28;20025;-75
2020/12/29 03:38:27;;;;;;;331.63;64.80;;;1.10;99.90;;;;;;5074734;28;20040;-74
2020/12/29 03:40:52;;;;;;;337.48;65.13;;;1.10;99.90;;;;;;5074677;28;20028;-74
2020/12/29 03:43:19;;;;;;;310.88;61.15;;;1.10;99.90;;;;;;5074630;28;20096;-74
2020/12/29 03:45:46;;;;;;;281.15;59.13;;;1.20;99.90;;;;;;5074513;28;20028;-74
2020/12/29 03:48:13;;;;;;;271.98;58.50;;;1.20;99.90;;;;;;5074230;28;20027;-74
2020/12/29 03:50:40;;;;;;;389.98;68.90;;;1.20;99.90;;;;;;5056689;28;20035;-74
2020/12/29 03:53:07;;;;;;;300.73;58.47;;;1.20;99.90;;;;;;5074480;28;20028;-75
2020/12/29 03:55:33;;;;;;;276.35;52.15;;;1.10;99.90;;;;;;5074585;28;20021;-75
2020/12/29 03:57:58;;;;;;;265.20;51.58;;;1.20;99.90;;;;;;5056543;28;20033;-75
2020/12/29 04:00:25;;;;;;;372.40;60.55;;;1.20;99.90;;;;;;5073779;28;20125;-74
2020/12/29 04:02:50;;;;;;;335.88;57.00;;;1.10;99.90;;;;;;5074230;28;20016;-74
2020/12/29 04:05:17;;;;;;;386.00;64.32;;;1.20;99.90;;;;;;5074034;28;20048;-74
2020/12/29 04:07:43;;;;;;;347.73;61.08;;;1.20;99.90;;;;;;5074006;28;20013;-74
2020/12/29 04:10:09;;;;;;;346.42;61.00;;;1.20;99.90;;;;;;5056399;28;20021;-75
2020/12/29 04:12:35;;;;;;;224.68;38.55;;;1.20;99.90;;;;;;5056244;28;20086;-74
2020/12/29 04:15:00;;;;;;;369.02;59.03;;;1.20;99.90;;;;;;5074409;28;20033;-75
2020/12/29 04:17:32;;;;;;;217.20;47.55;;;1.20;99.90;;;;;;5074097;28;20058;-74
2020/12/29 04:19:58;;;;;;;269.70;46.75;;;1.20;99.90;;;;;;5074115;28;20023;-75
2020/12/29 04:22:23;;;;;;;279.17;51.63;;;1.20;99.90;;;;;;5073738;28;20467;-76
2020/12/29 04:24:49;;;;;;;285.25;48.28;;;1.20;99.90;;;;;;5073835;28;20154;-74
2020/12/29 04:27:14;;;;;;;234.07;49.30;;;1.20;99.90;;;;;;5073147;28;20032;-75
2020/12/29 04:29:40;;;;;;;203.88;45.63;;;1.20;99.90;;;;;;5073223;28;20536;-75
2020/12/29 04:32:06;;;;;;;273.98;51.10;;;1.20;99.90;;;;;;5073697;28;20131;-75
2020/12/29 04:34:31;;;;;;;239.55;43.08;;;1.30;99.90;;;;;;5073008;28;20024;-75
2020/12/29 04:36:57;;;;;;;257.95;48.72;;;1.30;99.90;;;;;;5073435;28;20509;-76
2020/12/29 04:39:23;;;;;;;345.30;56.67;;;1.20;99.90;;;;;;5073686;28;20074;-75
2020/12/29 04:41:57;;;;;;;346.33;59.78;;;1.20;99.90;;;;;;5073381;28;20031;-74
2020/12/29 04:44:23;;;;;;;348.00;66.25;;;1.20;99.90;;;;;;5072295;28;20016;-76
2020/12/29 04:46:50;;;;;;;424.65;71.85;;;1.20;99.90;;;;;;5055582;28;20119;-76
2020/12/29 04:49:17;;;;;;;455.77;69.95;;;1.20;99.90;;;;;;5073234;28;20024;-75
2020/12/29 04:51:44;;;;;;;565.35;88.35;;;1.20;99.90;;;;;;5072988;28;20021;-75
2020/12/29 04:54:14;;;;;;;265.35;51.15;;;1.20;99.90;;;;;;5072816;28;20497;-73
2020/12/29 04:56:40;;;;;;;454.85;67.30;;;1.20;99.90;;;;;;5072501;28;20066;-74
2020/12/29 04:59:05;;;;;;;369.05;58.38;;;1.20;99.90;;;;;;5072674;28;20036;-74
2020/12/29 05:01:37;;;;;;;182.98;38.80;;;1.20;99.90;;;;;;5072665;28;20030;-76
2020/12/29 05:04:02;;;;;;;247.25;44.17;;;1.20;99.90;;;;;;5073353;28;20086;-77
2020/12/29 05:06:28;;;;;;;266.70;47.05;;;1.20;99.90;;;;;;5073107;28;20021;-77
2020/12/29 05:08:54;;;;;;;215.35;44.05;;;1.30;99.90;;;;;;5072832;28;20091;-77
2020/12/29 05:11:25;;;;;;;205.30;46.33;;;1.30;99.90;;;;;;5073028;28;20028;-76
2020/12/29 05:13:50;;;;;;;142.52;40.60;;;1.40;99.90;;;;;;5073452;28;20028;-78
2020/12/29 05:16:16;;;;;;;227.00;51.60;;;1.40;99.90;;;;;;5073038;28;20455;-76
2020/12/29 05:18:43;;;;;;;232.93;53.95;;;1.40;99.90;;;;;;5072811;28;20024;-76
2020/12/29 05:21:09;;;;;;;252.73;60.05;;;1.40;99.90;;;;;;5072518;28;20020;-76
2020/12/29 05:23:36;;;;;;;241.90;58.85;;;1.40;99.90;;;;;;5072785;28;20021;-78
2020/12/29 05:26:03;;;;;;;251.80;58.70;;;1.40;99.90;;;;;;5072913;28;20096;-78
2020/12/29 05:28:29;;;;;;;295.88;63.13;;;1.50;99.90;;;;;;5073358;28;20013;-77
2020/12/29 05:30:57;;;;;;;234.20;48.40;;;1.50;99.90;;;;;;5073463;28;20104;-77
2020/12/29 05:33:23;;;;;;;316.48;56.35;;;1.50;99.90;;;;;;5072514;28;20107;-77
2020/12/29 05:35:56;;;;;;;133.13;33.28;;;1.50;99.90;;;;;;5073004;28;20033;-78
2020/12/29 05:38:22;;;;;;;131.57;30.27;;;1.50;99.90;;;;;;5073355;28;20474;-77
2020/12/29 05:40:49;;;;;;;127.15;33.50;;;1.50;99.90;;;;;;5073147;28;20079;-78
2020/12/29 05:43:27;;;;;;;147.30;32.03;;;1.50;99.90;;;;;;5072893;28;20023;-77
2020/12/29 05:45:53;;;;;;;184.23;38.85;;;1.50;99.90;;;;;;5073123;28;20052;-78
2020/12/29 05:48:19;;;;;;;145.55;34.45;;;1.50;99.90;;;;;;5072926;28;20063;-78
2020/12/29 05:50:45;;;;;;;184.27;33.95;;;1.50;99.90;;;;;;5072655;28;20028;-78
2020/12/29 05:53:11;;;;;;;158.90;36.30;;;1.40;99.90;;;;;;5072794;28;20033;-77
2020/12/29 05:55:37;;;;;;;188.35;43.10;;;1.40;99.90;;;;;;5072307;28;20028;-78
2020/12/29 05:58:08;;;;;;;196.98;46.17;;;1.40;99.90;;;;;;5054589;28;20414;-78
2020/12/29 06:00:39;;;;;;;181.02;49.13;;;1.40;99.90;;;;;;5071947;28;20109;-77
2020/12/29 06:03:07;;;;;;;180.95;46.13;;;1.40;99.90;;;;;;5071816;28;20130;-78
2020/12/29 06:05:37;;;;;;;222.32;52.60;;;1.40;99.90;;;;;;5071727;28;20021;-78
2020/12/29 06:08:07;;;;;;;197.07;47.53;;;1.40;99.90;;;;;;5071823;28;20081;-77
2020/12/29 06:10:36;;;;;;;270.40;53.65;;;1.40;99.90;;;;;;5072202;28;20032;-81
2020/12/29 06:13:05;;;;;;;165.80;43.97;;;1.40;99.90;;;;;;5072138;28;20091;-81
2020/12/29 06:15:36;;;;;;;159.85;37.47;;;1.40;99.90;;;;;;5054261;28;20485;-81
2020/12/29 06:18:07;;;;;;;203.60;41.40;;;1.40;99.90;;;;;;5054473;28;20359;-79
2020/12/29 06:20:35;;;;;;;136.70;33.35;;;1.40;99.90;;;;;;5071895;28;20111;-81
2020/12/29 06:23:04;;;;;;;174.52;39.03;;;1.40;99.90;;;;;;5072344;28;20028;-81
2020/12/29 06:25:39;;;;;;;254.10;49.38;;;1.40;99.90;;;;;;5053778;28;20395;-81
2020/12/29 06:28:06;;;;;;;175.63;40.65;;;1.40;99.90;;;;;;5071833;28;20020;-80
2020/12/29 06:30:33;;;;;;;267.02;49.63;;;1.40;99.90;;;;;;5072072;28;20076;-80
2020/12/29 06:33:01;;;;;;;176.43;40.42;;;1.40;99.90;;;;;;5072400;28;20027;-81
2020/12/29 06:35:26;;;;;;;284.75;51.95;;;1.40;99.90;;;;;;5074667;28;20047;-87
2020/12/29 06:38:03;;;;;;;201.23;41.05;;;1.40;99.90;;;;;;5075469;28;20060;-80
2020/12/29 06:40:30;;;;;;;235.40;47.95;;;1.40;99.90;;;;;;5073734;28;20045;-80
2020/12/29 06:42:56;;;;;;;201.93;43.45;;;1.30;99.90;;;;;;5072498;28;20027;-81
2020/12/29 06:45:23;;;;;;;154.35;39.35;;;1.30;99.90;;;;;;5075753;28;20055;-81
2020/12/29 06:47:48;;;;;;;167.77;35.05;;;1.30;99.90;;;;;;5075290;28;20024;-81
2020/12/29 06:50:34;;;;;;;211.05;43.88;;;1.40;99.90;;;;;;5089545;28;20039;-84
2020/12/29 06:53:02;;;;;;;180.23;39.85;;;1.30;99.90;;;;;;5080520;28;20182;-83
2020/12/29 06:55:36;;;;;;;220.95;42.42;;;1.30;99.90;;;;;;5057852;28;20052;-81
2020/12/29 06:58:03;;;;;;;200.57;41.55;;;1.30;99.90;;;;;;5075905;28;20421;-82
2020/12/29 07:00:29;;;;;;;197.00;39.80;;;1.40;99.90;;;;;;5072095;28;20107;-80
2020/12/29 07:02:55;;;;;;;191.95;40.88;;;1.30;99.90;;;;;;5072019;28;20055;-81
2020/12/29 07:05:30;;;;;;;202.30;40.85;;;1.30;99.90;;;;;;5072237;28;20020;-80
2020/12/29 07:07:56;;;;;;;215.75;41.42;;;1.40;99.90;;;;;;5055337;28;20040;-81
2020/12/29 07:10:28;;;;;;;230.43;44.70;;;1.40;99.90;;;;;;5075119;28;20390;-80
2020/12/29 07:12:54;;;;;;;257.27;48.45;;;1.40;99.90;;;;;;5075050;28;20040;-80
2020/12/29 07:15:23;;;;;;;222.45;43.75;;;1.40;99.90;;;;;;5075189;28;20424;-82
2020/12/29 07:18:00;;;;;;;313.20;55.05;;;1.40;99.90;;;;;;5074988;28;20051;-80
2020/12/29 07:20:31;;;;;;;249.85;49.28;;;1.40;99.90;;;;;;5074563;28;20506;-80
2020/12/29 07:23:02;;;;;;;204.65;45.20;;;1.40;99.90;;;;;;5075149;28;20032;-80
2020/12/29 07:25:30;;;;;;;262.23;47.65;;;1.50;99.90;;;;;;5076360;28;20347;-81
2020/12/29 07:27:59;;;;;;;306.35;55.97;;;1.40;99.90;;;;;;5079820;28;20028;-83
2020/12/29 07:30:27;;;;;;;261.90;54.33;;;1.50;99.90;;;;;;5075250;28;20100;-81
2020/12/29 07:32:55;;;;;;;313.10;56.28;;;1.50;99.90;;;;;;5074958;28;20054;-81
2020/12/29 07:35:22;;;;;;;354.83;60.17;;;1.50;99.90;;;;;;5075094;28;20028;-81
2020/12/29 07:37:50;;;;;;;272.15;50.10;;;1.50;99.90;;;;;;5074874;28;20024;-81
2020/12/29 07:40:16;;;;;;;305.38;55.80;;;1.60;99.90;;;;;;5074528;28;20527;-81
2020/12/29 07:42:44;;;;;;;300.55;50.40;;;1.60;99.90;;;;;;5074328;28;20048;-81
2020/12/29 07:45:10;;;;;;;372.33;60.22;;;1.60;99.90;;;;;;5074110;28;20028;-81
2020/12/29 07:47:36;;;;;;;223.60;43.35;;;1.60;99.90;;;;;;5074192;28;20356;-80
2020/12/29 07:50:03;;;;;;;329.40;52.70;;;1.60;99.90;;;;;;5073986;28;20123;-81
2020/12/29 07:52:28;;;;;;;331.08;53.88;;;1.60;99.90;;;;;;5073680;28;20451;-81
2020/12/29 07:55:08;;;;;;;338.05;56.63;;;1.60;99.90;;;;;;5074709;28;20024;-81
2020/12/29 07:57:34;;;;;;;406.75;63.30;;;1.60;99.90;;;;;;5074003;28;20059;-82
2020/12/29 08:00:15;;;;;;;444.30;70.20;;;1.60;99.90;;;;;;5073644;28;20052;-81
2020/12/29 08:02:48;;;;;;;302.40;55.63;;;1.60;99.90;;;;;;5056184;28;20016;-81
2020/12/29 08:05:14;;;;;;;310.77;60.55;;;1.60;99.90;;;;;;5073862;28;20493;-84
2020/12/29 08:07:40;;;;;;;371.17;66.43;;;1.60;99.90;;;;;;5075029;28;20040;-85
2020/12/29 08:10:05;;;;;;;367.80;63.47;;;1.60;99.90;;;;;;5074479;28;20133;-82
2020/12/29 08:12:31;;;;;;;343.63;63.55;;;1.70;99.90;;;;;;5074392;28;20021;-83
2020/12/29 08:14:56;;;;;;;407.70;70.60;;;1.60;99.90;;;;;;5074315;28;20103;-86
2020/12/29 08:17:22;;;;;;;336.40;61.80;;;1.70;99.90;;;;;;5074787;28;20049;-85
2020/12/29 08:20:00;;;;;;;373.85;63.30;;;1.70;99.90;;;;;;5075278;28;20029;-87
2020/12/29 08:22:28;;;;;;;408.40;64.53;;;1.70;99.90;;;;;;5057981;28;20033;-87
2020/12/29 08:24:54;;;;;;;338.38;63.67;;;1.70;99.90;;;;;;5056746;28;20111;-86
2020/12/29 08:27:20;;;;;;;345.08;60.42;;;1.70;99.90;;;;;;5074245;28;20029;-86
2020/12/29 08:29:46;;;;;;;371.05;66.32;;;1.70;99.90;;;;;;5073451;28;20020;-88
2020/12/29 08:32:15;;;;;;;318.05;58.50;;;1.80;99.90;;;;;;5057412;28;20115;-81
2020/12/29 08:34:46;;;;;;;430.20;76.47;;;1.80;99.90;;;;;;5092740;28;20466;-82
2020/12/29 08:37:18;;;;;;;359.75;65.72;;;1.80;99.90;;;;;;5093490;28;20032;-82
2020/12/29 08:40:15;;;;;;;426.02;71.28;;;1.80;99.90;;;;;;5074805;28;20134;-81
2020/12/29 08:42:48;;;;;;;539.97;83.13;;;1.80;99.90;;;;;;5055771;28;20028;-82
2020/12/29 08:45:15;;;;;;;527.78;86.40;;;1.90;99.90;;;;;;5092923;28;20027;-81
2020/12/29 08:47:42;;;;;;;622.40;100.15;;;1.90;99.90;;;;;;5075259;28;20020;-81
2020/12/29 08:50:41;;;;;;;462.98;76.70;;;1.90;99.90;;;;;;5075456;28;20111;-83
2020/12/29 08:53:09;;;;;;;709.60;109.53;;;1.90;99.90;;;;;;5038647;28;20481;-82
2020/12/29 08:55:36;;;;;;;462.63;84.78;;;1.90;99.90;;;;;;5092991;28;20024;-81
2020/12/29 08:58:03;;;;;;;497.88;89.47;;;2.00;99.90;;;;;;5074850;28;20024;-84
2020/12/29 09:00:30;;;;;;;520.38;92.00;;;2.00;99.90;;;;;;5092966;28;20695;-82
2020/12/29 09:02:57;;;;;;;430.75;80.18;;;2.00;99.90;;;;;;5093464;28;20044;-81
2020/12/29 09:05:28;;;;;;;425.67;78.25;;;2.00;99.90;;;;;;5093401;28;20052;-81
2020/12/29 09:07:55;;;;;;;387.75;72.63;;;2.00;99.90;;;;;;5092849;28;20479;-81
2020/12/29 09:10:21;;;;;;;402.15;73.90;;;2.00;99.90;;;;;;5092740;28;20354;-80
2020/12/29 09:12:48;;;;;;;492.75;86.40;;;2.00;99.90;;;;;;5074019;28;20028;-79
2020/12/29 09:15:24;;;;;;;370.85;68.43;;;2.00;99.90;;;;;;5074201;28;20020;-78
2020/12/29 09:17:56;;;;;;;323.98;64.90;;;2.00;99.90;;;;;;5092944;28;20077;-77
2020/12/29 09:20:25;;;;;;;413.38;70.35;;;2.10;99.90;;;;;;5091716;28;20024;-77
2020/12/29 09:23:10;;;;;;;413.50;77.53;;;2.10;99.90;;;;;;5073316;28;20036;-78
2020/12/29 09:25:37;;;;;;;432.08;79.35;;;2.10;99.90;;;;;;5091781;28;20095;-79
2020/12/29 09:28:13;;;;;;;387.90;75.40;;;2.10;99.90;;;;;;5091737;28;20378;-78
2020/12/29 09:30:43;;;;;;;336.58;71.47;;;2.10;99.90;;;;;;5091389;28;20024;-79
2020/12/29 09:33:10;;;;;;;500.55;94.38;;;2.10;99.90;;;;;;5091238;28;20020;-79
2020/12/29 09:35:36;;;;;;;423.25;82.75;;;2.20;99.90;;;;;;5091538;28;20016;-78
2020/12/29 09:38:02;;;;;;;331.23;63.25;;;2.20;99.90;;;;;;5091779;28;20024;-78
2020/12/29 09:40:29;;;;;;;288.85;53.67;;;2.20;99.90;;;;;;5091586;28;20043;-78
2020/12/29 09:42:55;;;;;;;314.13;61.17;;;2.20;99.90;;;;;;5073756;28;20053;-77
2020/12/29 09:45:22;;;;;;;305.98;56.97;;;2.20;99.90;;;;;;5092121;28;20020;-78
2020/12/29 09:47:48;;;;;;;271.98;50.35;;;2.20;99.90;;;;;;5091935;28;20020;-78
2020/12/29 09:50:15;;;;;;;342.02;62.05;;;2.30;99.90;;;;;;5092115;28;20031;-80
2020/12/29 09:52:40;;;;;;;411.63;68.68;;;2.30;99.90;;;;;;5073455;28;20431;-76
2020/12/29 09:55:06;;;;;;;416.25;69.25;;;2.30;99.90;;;;;;5091899;28;20028;-77
2020/12/29 09:57:33;;;;;;;390.20;69.47;;;2.30;99.90;;;;;;5091690;28;20040;-78
2020/12/29 09:59:58;;;;;;;384.92;58.92;;;2.30;99.90;;;;;;5073212;28;20814;-78
2020/12/29 10:02:24;;;;;;;390.35;62.30;;;2.30;99.90;;;;;;5091175;28;20048;-79
2020/12/29 10:04:50;;;;;;;340.45;59.45;;;2.30;99.90;;;;;;5072846;28;20080;-78
2020/12/29 10:07:16;;;;;;;373.55;60.05;;;2.40;99.90;;;;;;5091453;28;20032;-78
2020/12/29 10:09:41;;;;;;;361.40;61.95;;;2.40;99.90;;;;;;5090608;28;20047;-77
2020/12/29 10:12:07;;;;;;;225.35;48.67;;;2.40;99.90;;;;;;5091263;28;20016;-76
2020/12/29 10:14:33;;;;;;;314.98;57.45;;;2.40;99.90;;;;;;5085673;28;20020;-78
2020/12/29 10:16:58;;;;;;;256.50;55.80;;;2.40;99.90;;;;;;5073389;28;20021;-77
2020/12/29 10:19:24;;;;;;;326.30;59.17;;;2.40;99.90;;;;;;5070458;28;20096;-77
2020/12/29 10:21:52;;;;;;;382.67;67.07;;;2.50;99.90;;;;;;5070239;28;20501;-77
2020/12/29 10:24:17;;;;;;;262.85;56.70;;;2.50;99.90;;;;;;5070595;28;20024;-76
2020/12/29 10:26:43;;;;;;;302.35;64.47;;;2.50;99.90;;;;;;5070876;28;20479;-76
2020/12/29 10:29:09;;;;;;;279.02;61.20;;;2.50;99.90;;;;;;5070653;28;20021;-76
2020/12/29 10:31:35;;;;;;;405.92;73.80;;;2.50;99.90;;;;;;5070529;28;20025;-77
2020/12/29 10:34:02;;;;;;;363.73;72.72;;;2.50;99.90;;;;;;5052666;28;20390;-76
2020/12/29 10:36:37;;;;;;;423.90;78.75;;;2.50;99.90;;;;;;5070553;28;20020;-77
2020/12/29 10:39:10;;;;;;;367.63;71.97;;;2.50;99.90;;;;;;5052297;28;20035;-78
2020/12/29 10:41:38;;;;;;;304.05;63.17;;;2.50;99.90;;;;;;5080363;28;20382;-80
2020/12/29 10:44:05;;;;;;;325.80;70.05;;;2.50;99.90;;;;;;5094245;28;20381;-78
2020/12/29 10:46:30;;;;;;;387.40;88.55;;;2.60;99.90;;;;;;5094505;28;20028;-77
2020/12/29 10:48:57;;;;;;;388.05;78.28;;;2.60;99.90;;;;;;5095012;28;20450;-77
2020/12/29 10:51:24;;;;;;;395.42;88.68;;;2.70;99.90;;;;;;5094125;28;20024;-78
2020/12/29 10:53:51;;;;;;;351.42;81.35;;;2.70;99.90;;;;;;5095269;28;20024;-79
2020/12/29 10:56:17;;;;;;;314.67;78.55;;;2.70;99.90;;;;;;5094905;28;20149;-77
2020/12/29 10:58:43;;;;;;;345.10;75.53;;;2.80;99.90;;;;;;5076602;28;20555;-78
2020/12/29 11:01:10;;;;;;;323.88;78.05;;;2.90;99.90;;;;;;5076212;28;20127;-78
2020/12/29 11:03:38;;;;;;;380.65;87.25;;;2.90;99.90;;;;;;5076864;28;20195;-78
2020/12/29 11:06:21;;;;;;;359.55;81.47;;;3.00;99.90;;;;;;5076611;28;20020;-78
2020/12/29 11:08:49;;;;;;;366.85;88.97;;;3.00;99.90;;;;;;5095174;28;20470;-77
2020/12/29 11:11:16;;;;;;;344.15;88.80;;;3.10;99.90;;;;;;5095633;28;20500;-78
2020/12/29 11:13:42;;;;;;;328.00;92.05;;;3.10;99.90;;;;;;5076509;28;20047;-78
2020/12/29 11:16:16;;;;;;;348.98;109.30;;;3.20;99.90;;;;;;5094998;28;20024;-80
2020/12/29 11:18:43;;;;;;;354.15;112.78;;;3.20;99.90;;;;;;5094637;28;20024;-78
2020/12/29 11:21:09;;;;;;;338.58;102.32;;;3.30;99.90;;;;;;5094283;28;20028;-78
2020/12/29 11:23:35;;;;;;;354.67;119.50;;;3.30;99.90;;;;;;5092989;28;20027;-77
2020/12/29 11:26:00;;;;;;;418.63;141.52;;;3.40;99.90;;;;;;5093789;28;20429;-75
2020/12/29 11:28:26;;;;;;;392.95;121.72;;;3.50;99.90;;;;;;5094040;28;20048;-77
2020/12/29 11:30:52;;;;;;;392.20;110.82;;;3.50;99.90;;;;;;5094369;28;20027;-76
2020/12/29 11:33:18;;;;;;;367.85;97.25;;;3.50;99.90;;;;;;5095296;28;20024;-77
2020/12/29 11:35:47;;;;;;;366.15;105.72;;;3.60;99.90;;;;;;5076221;28;20115;-79
2020/12/29 11:38:21;;;;;;;406.88;104.72;;;3.60;99.90;;;;;;5089213;28;20393;-80
2020/12/29 11:40:47;;;;;;;380.50;110.28;;;3.70;99.90;;;;;;5094216;28;20031;-77
2020/12/29 11:43:13;;;;;;;413.10;120.55;;;3.70;99.90;;;;;;5093307;28;20059;-78
2020/12/29 11:45:40;;;;;;;422.75;134.98;;;3.80;99.90;;;;;;5075218;28;20051;-77
2020/12/29 11:48:05;;;;;;;389.35;125.20;;;3.90;99.90;;;;;;5075331;28;20016;-78
2020/12/29 11:50:31;;;;;;;410.70;130.77;;;3.90;99.90;;;;;;5094717;28;20115;-82
2020/12/29 11:52:57;;;;;;;377.17;122.25;;;4.00;99.90;;;;;;5094540;28;20432;-83
2020/12/29 11:55:23;;;;;;;381.65;125.03;;;4.00;99.90;;;;;;5095103;28;20028;-82
2020/12/29 11:57:48;;;;;;;373.17;125.03;;;4.10;99.90;;;;;;5078230;28;20466;-82
2020/12/29 12:00:14;;;;;;;301.38;91.55;;;4.20;99.90;;;;;;5094623;28;20498;-83
2020/12/29 12:02:40;;;;;;;217.35;62.70;;;4.30;99.90;;;;;;5096147;28;20028;-83
2020/12/29 12:05:06;;;;;;;183.55;53.60;;;4.40;99.90;;;;;;5094987;28;20016;-84
2020/12/29 12:07:31;;;;;;;188.98;59.42;;;4.30;99.90;;;;;;5094815;28;20020;-82
2020/12/29 12:09:57;;;;;;;196.20;59.63;;;4.40;99.90;;;;;;5077072;28;20020;-83
2020/12/29 12:12:23;;;;;;;202.05;60.20;;;4.40;99.90;;;;;;5077092;28;20466;-85
2020/12/29 12:15:10;;;;;;;166.35;47.63;;;4.50;99.90;;;;;;5060124;28;20024;-84
2020/12/29 12:17:39;;;;;;;160.95;52.70;;;4.50;99.90;;;;;;5076884;28;20046;-83
2020/12/29 12:20:08;;;;;;;179.85;55.63;;;4.50;99.90;;;;;;5076485;28;20024;-82
2020/12/29 12:22:39;;;;;;;150.15;52.60;;;4.60;99.90;;;;;;5094103;28;20032;-81
2020/12/29 12:25:05;;;;;;;145.63;50.88;;;4.60;99.90;;;;;;5096292;28;20030;-82
2020/12/29 12:27:33;;;;;;;148.77;45.58;;;4.70;99.90;;;;;;5094117;28;20028;-82